Ana Sayfa
METAR-TAF:

METAR-TAF

Havaalanları :

Larnaka Uluslararası Havalimanı

Larnaka, Kıbrıs

Enlem: 34-53N, Boylam: 033-38E, yükseklik: 2 m

Güncel hava durumu gözlemi

Rapor saat 00:30 UTC de 7 dakika önce yapıldı.
Rüzgar batı/kuzeybatıdan 3 kt
Sıcaklık 23°C
Nem 94%
Basınç 1008 hPa
Görüş mesafesi 10 km veya daha fazla
1500 m altında bulut yok ve kümülonimbus yok

METAR: LCLK 250030Z 30003KT CAVOK 23/22 Q1008 NOSIG

Saat: 03:37 (00:37 UTC)

Tahmin

Rapor saat 23:30 UTC de 1 saat ve 7 dakika önce yapıldı.
Ayın 25'si saat 00 UTC'den ayın 25'si saat 24 UTC'ye kadar geçerli Tahmin
Rüzgar değişken yönden 3 kt
Dönüşüyor
ayın 25'si saat 07 UTC'den ayın 25'si saat 11 UTC'ye kadar
Rüzgar güney/güneybatıdan 18 kt
Dönüşüyor
ayın 25'si saat 16 UTC'den ayın 25'si saat 19 UTC'ye kadar
Rüzgar batı/güneybatıdan 6 kt

TAF: LCLK 242330Z 2500/2524 VRB03KT BECMG 2507/2511 21018KT BECMG 2516/2519 24006KT

4.000'den fazla havaalanı için hava durumu gözlemleri ve tahminleri (METAR ve TAF raporları).

Kullanılabilir istasyonlar harita üzerinde sarı ve kırmızı noktalarla gösterilir.

İstasyonun adını görmek için fareyi noktanın üzerinde gezdirin.

Sonrasında hava gözlem ve tahminlerini görmek için tıklayın.

Haritayı değiştirmek için: yaklaştırmak için siyah artı işaretli yeşil düğmeye ve uzaklaştırmak için de eksi işaretli düğmeye hızla tıklayın; bitişik haritalar için yeşil okları kullanın.


METAR-TAF: